sensor_id;sensor_type;location;lat;lon;timestamp;pressure;altitude;pressure_sealevel;temperature;humidity
73429;BME280;61643;49.564;17.412;2023-04-05T00:01:45;98760.88;;;-3.36;76.82
73429;BME280;61643;49.564;17.412;2023-04-05T00:04:15;98755.81;;;-3.30;76.90
73429;BME280;61643;49.564;17.412;2023-04-05T00:06:46;98753.06;;;-3.20;76.14
73429;BME280;61643;49.564;17.412;2023-04-05T00:09:17;98754.47;;;-3.34;76.77
73429;BME280;61643;49.564;17.412;2023-04-05T00:11:44;98748.22;;;-3.33;76.40
73429;BME280;61643;49.564;17.412;2023-04-05T00:14:10;98748.88;;;-3.31;76.54
73429;BME280;61643;49.564;17.412;2023-04-05T00:16:36;98745.53;;;-3.41;77.51
73429;BME280;61643;49.564;17.412;2023-04-05T00:19:02;98742.91;;;-3.41;76.69
73429;BME280;61643;49.564;17.412;2023-04-05T00:21:28;98731.81;;;-3.53;77.06
73429;BME280;61643;49.564;17.412;2023-04-05T00:23:55;98740.09;;;-3.47;77.26
73429;BME280;61643;49.564;17.412;2023-04-05T00:26:25;98736.13;;;-3.43;77.05
73429;BME280;61643;49.564;17.412;2023-04-05T00:28:51;98733.50;;;-3.43;76.95
73429;BME280;61643;49.564;17.412;2023-04-05T00:31:17;98742.09;;;-3.41;77.08
73429;BME280;61643;49.564;17.412;2023-04-05T00:33:44;98740.88;;;-3.47;76.94
73429;BME280;61643;49.564;17.412;2023-04-05T00:36:11;98721.94;;;-3.51;76.67
73429;BME280;61643;49.564;17.412;2023-04-05T00:38:38;98726.34;;;-3.59;77.19
73429;BME280;61643;49.564;17.412;2023-04-05T00:41:05;98734.56;;;-3.62;77.38
73429;BME280;61643;49.564;17.412;2023-04-05T00:43:31;98731.44;;;-3.58;77.49
73429;BME280;61643;49.564;17.412;2023-04-05T00:45:57;98722.91;;;-3.60;77.58
73429;BME280;61643;49.564;17.412;2023-04-05T00:48:23;98729.44;;;-3.64;78.40
73429;BME280;61643;49.564;17.412;2023-04-05T00:50:50;98733.31;;;-3.50;77.45
73429;BME280;61643;49.564;17.412;2023-04-05T00:53:20;98724.56;;;-3.59;77.91
73429;BME280;61643;49.564;17.412;2023-04-05T00:55:47;98728.56;;;-3.47;78.15
73429;BME280;61643;49.564;17.412;2023-04-05T00:58:16;98730.22;;;-3.45;77.25
73429;BME280;61643;49.564;17.412;2023-04-05T01:00:55;98721.88;;;-3.67;78.10
73429;BME280;61643;49.564;17.412;2023-04-05T01:03:25;98712.06;;;-3.57;78.13
73429;BME280;61643;49.564;17.412;2023-04-05T01:11:14;98716.28;;;-3.64;78.19
73429;BME280;61643;49.564;17.412;2023-04-05T01:13:44;98719.50;;;-3.78;78.94
73429;BME280;61643;49.564;17.412;2023-04-05T01:16:10;98710.84;;;-3.70;79.13
73429;BME280;61643;49.564;17.412;2023-04-05T01:18:36;98708.53;;;-3.65;78.83
73429;BME280;61643;49.564;17.412;2023-04-05T01:27:00;98706.09;;;-3.67;79.29
73429;BME280;61643;49.564;17.412;2023-04-05T01:34:49;98704.72;;;-3.45;78.39
73429;BME280;61643;49.564;17.412;2023-04-05T01:37:18;98695.97;;;-3.54;78.72
73429;BME280;61643;49.564;17.412;2023-04-05T01:39:45;98698.53;;;-3.36;78.67
73429;BME280;61643;49.564;17.412;2023-04-05T01:42:13;98698.75;;;-3.21;77.34
73429;BME280;61643;49.564;17.412;2023-04-05T01:44:39;98699.63;;;-3.13;78.24
73429;BME280;61643;49.564;17.412;2023-04-05T01:47:05;98698.66;;;-3.12;77.18
73429;BME280;61643;49.564;17.412;2023-04-05T01:49:30;98698.66;;;-3.04;77.56
73429;BME280;61643;49.564;17.412;2023-04-05T01:51:56;98697.88;;;-2.96;77.24
73429;BME280;61643;49.564;17.412;2023-04-05T01:54:22;98688.22;;;-3.21;79.17
73429;BME280;61643;49.564;17.412;2023-04-05T01:56:48;98695.69;;;-3.42;80.42
73429;BME280;61643;49.564;17.412;2023-04-05T01:59:14;98679.78;;;-3.67;81.72
73429;BME280;61643;49.564;17.412;2023-04-05T02:01:40;98695.34;;;-3.47;81.03
73429;BME280;61643;49.564;17.412;2023-04-05T02:04:06;98683.25;;;-3.32;79.71
73429;BME280;61643;49.564;17.412;2023-04-05T02:06:32;98686.22;;;-3.27;79.39
73429;BME280;61643;49.564;17.412;2023-04-05T02:08:58;98687.19;;;-3.36;80.33
73429;BME280;61643;49.564;17.412;2023-04-05T02:11:24;98683.78;;;-3.21;80.04
73429;BME280;61643;49.564;17.412;2023-04-05T02:13:50;98687.78;;;-3.09;81.43
73429;BME280;61643;49.564;17.412;2023-04-05T02:16:16;98686.00;;;-3.00;81.24
73429;BME280;61643;49.564;17.412;2023-04-05T02:18:43;98682.56;;;-2.92;80.72
73429;BME280;61643;49.564;17.412;2023-04-05T02:21:15;98689.66;;;-2.85;80.91
73429;BME280;61643;49.564;17.412;2023-04-05T02:23:41;98688.03;;;-2.86;82.03
73429;BME280;61643;49.564;17.412;2023-04-05T02:26:08;98686.06;;;-2.84;82.70
73429;BME280;61643;49.564;17.412;2023-04-05T02:28:34;98690.16;;;-2.97;82.90
73429;BME280;61643;49.564;17.412;2023-04-05T02:31:00;98672.88;;;-2.92;83.14
73429;BME280;61643;49.564;17.412;2023-04-05T02:33:26;98667.78;;;-2.93;82.24
73429;BME280;61643;49.564;17.412;2023-04-05T02:35:52;98676.50;;;-2.85;81.70
73429;BME280;61643;49.564;17.412;2023-04-05T02:38:18;98679.53;;;-2.72;81.30
73429;BME280;61643;49.564;17.412;2023-04-05T02:40:48;98672.94;;;-2.68;81.74
73429;BME280;61643;49.564;17.412;2023-04-05T02:43:14;98669.28;;;-2.75;81.04
73429;BME280;61643;49.564;17.412;2023-04-05T02:45:40;98672.91;;;-2.84;81.30
73429;BME280;61643;49.564;17.412;2023-04-05T02:48:06;98682.63;;;-2.76;81.43
73429;BME280;61643;49.564;17.412;2023-04-05T02:50:32;98679.50;;;-2.64;80.38
73429;BME280;61643;49.564;17.412;2023-04-05T02:52:58;98681.66;;;-2.59;80.67
73429;BME280;61643;49.564;17.412;2023-04-05T02:55:24;98680.34;;;-2.63;80.42
73429;BME280;61643;49.564;17.412;2023-04-05T02:57:50;98677.72;;;-2.55;79.74
73429;BME280;61643;49.564;17.412;2023-04-05T03:00:17;98686.28;;;-2.53;79.75
73429;BME280;61643;49.564;17.412;2023-04-05T03:02:43;98679.19;;;-2.53;79.44
73429;BME280;61643;49.564;17.412;2023-04-05T03:05:09;98679.41;;;-2.46;79.54
73429;BME280;61643;49.564;17.412;2023-04-05T03:07:35;98672.00;;;-2.42;79.30
73429;BME280;61643;49.564;17.412;2023-04-05T03:10:01;98670.84;;;-2.40;79.55
73429;BME280;61643;49.564;17.412;2023-04-05T03:12:27;98672.16;;;-2.36;78.72
73429;BME280;61643;49.564;17.412;2023-04-05T03:14:53;98671.66;;;-2.39;78.80
73429;BME280;61643;49.564;17.412;2023-04-05T03:17:19;98670.34;;;-2.43;79.87
73429;BME280;61643;49.564;17.412;2023-04-05T03:19:45;98662.25;;;-2.42;78.62
73429;BME280;61643;49.564;17.412;2023-04-05T03:22:11;98671.47;;;-2.38;78.82
73429;BME280;61643;49.564;17.412;2023-04-05T03:24:37;98669.19;;;-2.41;78.74
73429;BME280;61643;49.564;17.412;2023-04-05T03:27:03;98666.22;;;-2.38;78.31
73429;BME280;61643;49.564;17.412;2023-04-05T03:29:30;98665.06;;;-2.35;79.12
73429;BME280;61643;49.564;17.412;2023-04-05T03:31:57;98657.31;;;-2.37;79.30
73429;BME280;61643;49.564;17.412;2023-04-05T03:34:23;98659.63;;;-2.34;78.88
73429;BME280;61643;49.564;17.412;2023-04-05T03:36:56;98651.06;;;-2.36;78.71
73429;BME280;61643;49.564;17.412;2023-04-05T03:39:22;98659.63;;;-2.34;78.77
73429;BME280;61643;49.564;17.412;2023-04-05T03:41:48;98663.25;;;-2.27;77.52
73429;BME280;61643;49.564;17.412;2023-04-05T03:44:14;98657.81;;;-2.33;78.78
73429;BME280;61643;49.564;17.412;2023-04-05T03:46:40;98660.94;;;-2.30;80.74
73429;BME280;61643;49.564;17.412;2023-04-05T03:49:07;98658.97;;;-2.28;81.24
73429;BME280;61643;49.564;17.412;2023-04-05T03:51:33;98658.81;;;-2.26;81.38
73429;BME280;61643;49.564;17.412;2023-04-05T03:53:59;98666.88;;;-2.28;82.16
73429;BME280;61643;49.564;17.412;2023-04-05T03:56:25;98662.09;;;-2.32;84.21
73429;BME280;61643;49.564;17.412;2023-04-05T03:58:52;98663.44;;;-2.28;83.45
73429;BME280;61643;49.564;17.412;2023-04-05T04:01:18;98649.75;;;-2.32;82.57
73429;BME280;61643;49.564;17.412;2023-04-05T04:03:44;98662.09;;;-2.32;81.45
73429;BME280;61643;49.564;17.412;2023-04-05T04:06:10;98658.47;;;-2.31;82.18
73429;BME280;61643;49.564;17.412;2023-04-05T04:08:36;98654.34;;;-2.34;81.80
73429;BME280;61643;49.564;17.412;2023-04-05T04:11:02;98653.53;;;-2.51;82.61
73429;BME280;61643;49.564;17.412;2023-04-05T04:13:28;98656.50;;;-2.54;83.08
73429;BME280;61643;49.564;17.412;2023-04-05T04:15:54;98662.41;;;-2.68;82.98
73429;BME280;61643;49.564;17.412;2023-04-05T04:18:20;98660.41;;;-2.74;82.80
73429;BME280;61643;49.564;17.412;2023-04-05T04:20:46;98663.53;;;-2.70;83.34
73429;BME280;61643;49.564;17.412;2023-04-05T04:23:12;98660.41;;;-2.66;83.65
73429;BME280;61643;49.564;17.412;2023-04-05T04:25:39;98662.22;;;-2.66;82.94
73429;BME280;61643;49.564;17.412;2023-04-05T04:28:06;98660.91;;;-2.70;83.32
73429;BME280;61643;49.564;17.412;2023-04-05T04:30:32;98655.44;;;-2.85;83.85
73429;BME280;61643;49.564;17.412;2023-04-05T04:33:00;98655.94;;;-2.81;83.53
73429;BME280;61643;49.564;17.412;2023-04-05T04:35:32;98660.88;;;-2.86;83.41
73429;BME280;61643;49.564;17.412;2023-04-05T04:38:04;98661.69;;;-2.94;84.13
73429;BME280;61643;49.564;17.412;2023-04-05T04:40:32;98654.91;;;-3.05;84.10
73429;BME280;61643;49.564;17.412;2023-04-05T04:43:05;98659.44;;;-3.23;86.34
73429;BME280;61643;49.564;17.412;2023-04-05T04:45:35;98654.50;;;-3.18;85.27
73429;BME280;61643;49.564;17.412;2023-04-05T04:48:03;98659.28;;;-3.21;85.74
73429;BME280;61643;49.564;17.412;2023-04-05T04:50:33;98653.44;;;-2.91;84.10
73429;BME280;61643;49.564;17.412;2023-04-05T04:53:00;98660.06;;;-2.71;83.30
73429;BME280;61643;49.564;17.412;2023-04-05T04:55:27;98653.97;;;-2.87;85.19
73429;BME280;61643;49.564;17.412;2023-04-05T04:57:54;98651.84;;;-2.60;84.14
73429;BME280;61643;49.564;17.412;2023-04-05T05:00:22;98660.25;;;-2.56;83.25
73429;BME280;61643;49.564;17.412;2023-04-05T05:02:50;98647.44;;;-2.51;84.51
73429;BME280;61643;49.564;17.412;2023-04-05T05:05:17;98647.59;;;-2.44;83.78
73429;BME280;61643;49.564;17.412;2023-04-05T05:07:43;98648.28;;;-2.42;83.32
73429;BME280;61643;49.564;17.412;2023-04-05T05:10:10;98654.03;;;-2.31;83.04
73429;BME280;61643;49.564;17.412;2023-04-05T05:12:37;98648.75;;;-2.31;83.75
73429;BME280;61643;49.564;17.412;2023-04-05T05:15:03;98650.75;;;-2.25;81.54
73429;BME280;61643;49.564;17.412;2023-04-05T05:17:30;98648.75;;;-2.23;81.77
73429;BME280;61643;49.564;17.412;2023-04-05T05:19:57;98646.78;;;-2.21;80.90
73429;BME280;61643;49.564;17.412;2023-04-05T05:22:25;98649.91;;;-2.17;81.49
73429;BME280;61643;49.564;17.412;2023-04-05T05:24:52;98654.81;;;-2.06;80.75
73429;BME280;61643;49.564;17.412;2023-04-05T05:27:18;98648.22;;;-1.94;80.41
73429;BME280;61643;49.564;17.412;2023-04-05T05:29:44;98655.97;;;-1.84;80.90
73429;BME280;61643;49.564;17.412;2023-04-05T05:32:10;98653.66;;;-1.87;81.89
73429;BME280;61643;49.564;17.412;2023-04-05T05:34:41;98662.34;;;-1.55;79.96
73429;BME280;61643;49.564;17.412;2023-04-05T05:37:12;98663.56;;;-1.26;78.59
73429;BME280;61643;49.564;17.412;2023-04-05T05:39:38;98654.38;;;-1.00;78.07
73429;BME280;61643;49.564;17.412;2023-04-05T05:42:05;98655.00;;;-0.98;77.78
73429;BME280;61643;49.564;17.412;2023-04-05T05:44:31;98651.06;;;-0.71;77.21
73429;BME280;61643;49.564;17.412;2023-04-05T05:46:57;98651.72;;;-0.69;75.39
73429;BME280;61643;49.564;17.412;2023-04-05T05:49:24;98645.94;;;-0.41;75.50
73429;BME280;61643;49.564;17.412;2023-04-05T05:51:50;98645.09;;;-0.19;74.33
73429;BME280;61643;49.564;17.412;2023-04-05T05:54:17;98647.78;;;-0.27;74.64
73429;BME280;61643;49.564;17.412;2023-04-05T05:56:43;98639.91;;;-0.13;73.80
73429;BME280;61643;49.564;17.412;2023-04-05T05:59:09;98637.19;;;-0.05;72.93
73429;BME280;61643;49.564;17.412;2023-04-05T06:01:36;98635.66;;;0.01;75.47
73429;BME280;61643;49.564;17.412;2023-04-05T06:04:03;98641.50;;;0.11;75.59
73429;BME280;61643;49.564;17.412;2023-04-05T06:06:29;98635.31;;;0.19;73.77
73429;BME280;61643;49.564;17.412;2023-04-05T06:08:55;98639.06;;;0.24;70.96
73429;BME280;61643;49.564;17.412;2023-04-05T06:11:21;98632.59;;;0.27;71.01
73429;BME280;61643;49.564;17.412;2023-04-05T06:13:49;98636.69;;;0.29;69.46
73429;BME280;61643;49.564;17.412;2023-04-05T06:16:17;98632.94;;;0.24;68.00
73429;BME280;61643;49.564;17.412;2023-04-05T06:18:43;98641.91;;;0.37;68.82
73429;BME280;61643;49.564;17.412;2023-04-05T06:21:09;98638.78;;;0.34;67.93
73429;BME280;61643;49.564;17.412;2023-04-05T06:23:35;98634.06;;;0.44;68.40
73429;BME280;61643;49.564;17.412;2023-04-05T06:26:01;98633.34;;;0.35;66.39
73429;BME280;61643;49.564;17.412;2023-04-05T06:28:27;98632.06;;;0.31;66.23
73429;BME280;61643;49.564;17.412;2023-04-05T06:30:56;98635.97;;;0.21;71.07
73429;BME280;61643;49.564;17.412;2023-04-05T06:33:23;98647.38;;;0.21;72.97
73429;BME280;61643;49.564;17.412;2023-04-05T06:35:49;98644.94;;;-0.03;72.32
73429;BME280;61643;49.564;17.412;2023-04-05T06:38:15;98651.16;;;0.04;71.31
73429;BME280;61643;49.564;17.412;2023-04-05T06:40:41;98651.44;;;0.09;70.16
73429;BME280;61643;49.564;17.412;2023-04-05T06:43:07;98649.44;;;0.11;69.16
73429;BME280;61643;49.564;17.412;2023-04-05T06:45:35;98647.19;;;0.23;69.58
73429;BME280;61643;49.564;17.412;2023-04-05T06:48:02;98653.78;;;0.41;69.50
73429;BME280;61643;49.564;17.412;2023-04-05T06:50:28;98649.13;;;0.43;69.85
73429;BME280;61643;49.564;17.412;2023-04-05T06:52:53;98654.16;;;0.38;68.32
73429;BME280;61643;49.564;17.412;2023-04-05T06:55:20;98646.28;;;0.30;69.41
73429;BME280;61643;49.564;17.412;2023-04-05T06:57:46;98650.31;;;0.41;69.84
73429;BME280;61643;49.564;17.412;2023-04-05T07:00:13;98645.47;;;0.44;68.56
73429;BME280;61643;49.564;17.412;2023-04-05T07:02:40;98642.19;;;0.42;68.80
73429;BME280;61643;49.564;17.412;2023-04-05T07:05:06;98634.16;;;0.51;69.01
73429;BME280;61643;49.564;17.412;2023-04-05T07:07:37;98639.81;;;0.47;69.69
73429;BME280;61643;49.564;17.412;2023-04-05T07:10:04;98642.81;;;0.44;69.75
73429;BME280;61643;49.564;17.412;2023-04-05T07:12:31;98640.63;;;0.33;71.31
73429;BME280;61643;49.564;17.412;2023-04-05T07:14:58;98644.91;;;0.34;70.37
73429;BME280;61643;49.564;17.412;2023-04-05T07:17:24;98642.00;;;0.44;71.22
73429;BME280;61643;49.564;17.412;2023-04-05T07:19:50;98639.19;;;0.45;70.47
73429;BME280;61643;49.564;17.412;2023-04-05T07:22:16;98635.53;;;0.46;69.88
73429;BME280;61643;49.564;17.412;2023-04-05T07:24:44;98634.06;;;0.59;69.61
73429;BME280;61643;49.564;17.412;2023-04-05T07:27:10;98635.53;;;0.76;69.89
73429;BME280;61643;49.564;17.412;2023-04-05T07:29:37;98626.63;;;0.83;69.77
73429;BME280;61643;49.564;17.412;2023-04-05T07:32:06;98627.69;;;0.68;69.61
73429;BME280;61643;49.564;17.412;2023-04-05T07:34:33;98631.59;;;0.72;70.38
73429;BME280;61643;49.564;17.412;2023-04-05T07:36:59;98624.25;;;0.88;70.82
73429;BME280;61643;49.564;17.412;2023-04-05T07:39:25;98630.75;;;1.01;69.42
73429;BME280;61643;49.564;17.412;2023-04-05T07:41:51;98633.22;;;1.23;69.74
73429;BME280;61643;49.564;17.412;2023-04-05T07:44:17;98614.44;;;1.61;71.19
73429;BME280;61643;49.564;17.412;2023-04-05T07:46:43;98627.75;;;1.88;69.13
73429;BME280;61643;49.564;17.412;2023-04-05T07:49:10;98629.31;;;2.04;65.17
73429;BME280;61643;49.564;17.412;2023-04-05T07:51:37;98635.75;;;2.16;65.13
73429;BME280;61643;49.564;17.412;2023-04-05T07:54:03;98638.19;;;2.18;65.97
73429;BME280;61643;49.564;17.412;2023-04-05T07:56:32;98638.28;;;2.03;66.21
73429;BME280;61643;49.564;17.412;2023-04-05T07:58:58;98630.03;;;1.70;67.59
73429;BME280;61643;49.564;17.412;2023-04-05T08:01:24;98628.84;;;1.73;66.25
73429;BME280;61643;49.564;17.412;2023-04-05T08:03:53;98635.78;;;1.74;63.24
73429;BME280;61643;49.564;17.412;2023-04-05T08:06:22;98631.38;;;1.81;62.72
73429;BME280;61643;49.564;17.412;2023-04-05T08:08:49;98634.28;;;1.86;64.34
73429;BME280;61643;49.564;17.412;2023-04-05T08:11:15;98638.31;;;1.82;66.14
73429;BME280;61643;49.564;17.412;2023-04-05T08:13:41;98635.53;;;1.90;65.58
73429;BME280;61643;49.564;17.412;2023-04-05T08:16:08;98631.53;;;2.01;62.95
73429;BME280;61643;49.564;17.412;2023-04-05T08:18:35;98635.28;;;2.06;62.92
73429;BME280;61643;49.564;17.412;2023-04-05T08:21:01;98634.59;;;2.25;61.60
73429;BME280;61643;49.564;17.412;2023-04-05T08:23:27;98626.63;;;2.25;58.65
73429;BME280;61643;49.564;17.412;2023-04-05T08:25:53;98635.88;;;2.36;58.91
73429;BME280;61643;49.564;17.412;2023-04-05T08:28:19;98635.00;;;2.29;56.08
73429;BME280;61643;49.564;17.412;2023-04-05T08:30:46;98626.88;;;2.30;56.52
73429;BME280;61643;49.564;17.412;2023-04-05T08:33:12;98627.69;;;2.31;55.18
73429;BME280;61643;49.564;17.412;2023-04-05T08:35:39;98628.97;;;2.41;54.66
73429;BME280;61643;49.564;17.412;2023-04-05T08:38:08;98633.00;;;2.31;61.63
73429;BME280;61643;49.564;17.412;2023-04-05T08:40:42;98642.44;;;2.40;60.06
73429;BME280;61643;49.564;17.412;2023-04-05T08:43:32;98640.88;;;2.45;57.69
73429;BME280;61643;49.564;17.412;2023-04-05T08:45:59;98631.03;;;2.46;54.66
73429;BME280;61643;49.564;17.412;2023-04-05T08:48:26;98637.59;;;2.50;55.99
73429;BME280;61643;49.564;17.412;2023-04-05T08:50:56;98633.53;;;2.54;55.12
73429;BME280;61643;49.564;17.412;2023-04-05T08:53:22;98630.59;;;2.42;55.22
73429;BME280;61643;49.564;17.412;2023-04-05T08:55:50;98638.81;;;2.47;55.23
73429;BME280;61643;49.564;17.412;2023-04-05T08:58:20;98638.97;;;2.39;55.62
73429;BME280;61643;49.564;17.412;2023-04-05T09:00:52;98633.50;;;2.47;55.37
73429;BME280;61643;49.564;17.412;2023-04-05T09:03:27;98628.69;;;2.64;56.35
73429;BME280;61643;49.564;17.412;2023-04-05T09:05:57;98622.78;;;3.10;55.07
73429;BME280;61643;49.564;17.412;2023-04-05T09:08:24;98631.91;;;3.48;54.38
73429;BME280;61643;49.564;17.412;2023-04-05T09:10:50;98628.88;;;3.58;53.30
73429;BME280;61643;49.564;17.412;2023-04-05T09:13:17;98627.78;;;3.39;52.59
73429;BME280;61643;49.564;17.412;2023-04-05T09:15:43;98618.72;;;3.20;52.92
73429;BME280;61643;49.564;17.412;2023-04-05T09:18:11;98610.94;;;3.12;52.25
73429;BME280;61643;49.564;17.412;2023-04-05T09:20:37;98623.53;;;2.97;52.94
73429;BME280;61643;49.564;17.412;2023-04-05T09:23:03;98619.81;;;2.78;54.25
73429;BME280;61643;49.564;17.412;2023-04-05T09:27:58;98618.69;;;2.60;53.47
73429;BME280;61643;49.564;17.412;2023-04-05T09:30:25;98632.38;;;2.63;54.13
73429;BME280;61643;49.564;17.412;2023-04-05T09:32:54;98632.25;;;2.78;54.42
73429;BME280;61643;49.564;17.412;2023-04-05T09:35:21;98627.00;;;2.91;53.88
73429;BME280;61643;49.564;17.412;2023-04-05T09:37:52;98636.19;;;2.82;53.34
73429;BME280;61643;49.564;17.412;2023-04-05T09:40:19;98634.56;;;2.87;54.12
73429;BME280;61643;49.564;17.412;2023-04-05T09:42:46;98641.84;;;2.79;53.46
73429;BME280;61643;49.564;17.412;2023-04-05T09:45:13;98632.47;;;2.83;54.51
73429;BME280;61643;49.564;17.412;2023-04-05T09:47:39;98626.00;;;2.92;55.67
73429;BME280;61643;49.564;17.412;2023-04-05T09:52:42;98624.56;;;3.57;52.68
73429;BME280;61643;49.564;17.412;2023-04-05T09:55:09;98614.16;;;3.81;52.02
73429;BME280;61643;49.564;17.412;2023-04-05T09:57:36;98609.44;;;3.96;48.03
73429;BME280;61643;49.564;17.412;2023-04-05T10:00:04;98605.34;;;4.14;51.17
73429;BME280;61643;49.564;17.412;2023-04-05T10:02:38;98599.81;;;4.09;49.86
73429;BME280;61643;49.564;17.412;2023-04-05T10:05:09;98600.63;;;4.09;48.61
73429;BME280;61643;49.564;17.412;2023-04-05T10:07:42;98607.59;;;3.84;48.56
73429;BME280;61643;49.564;17.412;2023-04-05T10:10:09;98603.91;;;3.72;49.61
73429;BME280;61643;49.564;17.412;2023-04-05T10:12:40;98598.78;;;3.64;50.02
73429;BME280;61643;49.564;17.412;2023-04-05T10:15:10;98605.94;;;3.70;51.81
73429;BME280;61643;49.564;17.412;2023-04-05T10:17:46;98602.91;;;3.79;50.93
73429;BME280;61643;49.564;17.412;2023-04-05T10:20:16;98602.66;;;3.74;50.72
73429;BME280;61643;49.564;17.412;2023-04-05T10:23:08;98603.47;;;3.55;51.17
73429;BME280;61643;49.564;17.412;2023-04-05T10:25:53;98603.44;;;3.48;51.07
73429;BME280;61643;49.564;17.412;2023-04-05T10:28:34;98601.63;;;3.62;52.31
73429;BME280;61643;49.564;17.412;2023-04-05T10:33:46;98589.53;;;3.46;52.68
73429;BME280;61643;49.564;17.412;2023-04-05T10:39:02;98592.84;;;3.62;52.14
73429;BME280;61643;49.564;17.412;2023-04-05T10:41:46;98596.94;;;3.64;49.36
73429;BME280;61643;49.564;17.412;2023-04-05T10:44:13;98593.81;;;3.47;50.05
73429;BME280;61643;49.564;17.412;2023-04-05T10:46:40;98589.38;;;3.68;52.04
73429;BME280;61643;49.564;17.412;2023-04-05T10:49:28;98582.81;;;4.03;52.87
73429;BME280;61643;49.564;17.412;2023-04-05T10:51:57;98577.66;;;4.28;53.48
73429;BME280;61643;49.564;17.412;2023-04-05T10:54:23;98583.19;;;4.33;53.12
73429;BME280;61643;49.564;17.412;2023-04-05T10:56:50;98580.69;;;4.38;52.78
73429;BME280;61643;49.564;17.412;2023-04-05T10:59:16;98581.34;;;4.33;51.50
73429;BME280;61643;49.564;17.412;2023-04-05T11:01:44;98579.72;;;4.26;51.31
73429;BME280;61643;49.564;17.412;2023-04-05T11:04:14;98580.34;;;4.15;52.13
73429;BME280;61643;49.564;17.412;2023-04-05T11:06:41;98573.78;;;4.17;54.16
73429;BME280;61643;49.564;17.412;2023-04-05T11:09:11;98575.41;;;4.18;49.60
73429;BME280;61643;49.564;17.412;2023-04-05T11:11:44;98572.09;;;4.42;50.25
73429;BME280;61643;49.564;17.412;2023-04-05T11:14:19;98578.59;;;4.60;50.65
73429;BME280;61643;49.564;17.412;2023-04-05T11:16:47;98567.50;;;4.69;49.68
73429;BME280;61643;49.564;17.412;2023-04-05T11:19:16;98562.56;;;4.73;49.36
73429;BME280;61643;49.564;17.412;2023-04-05T11:21:42;98558.06;;;4.73;48.93
73429;BME280;61643;49.564;17.412;2023-04-05T11:24:13;98563.81;;;4.77;49.04
73429;BME280;61643;49.564;17.412;2023-04-05T11:29:09;98571.25;;;4.48;48.48
73429;BME280;61643;49.564;17.412;2023-04-05T11:31:56;98565.13;;;4.35;49.56
73429;BME280;61643;49.564;17.412;2023-04-05T11:34:25;98559.00;;;4.28;50.67
73429;BME280;61643;49.564;17.412;2023-04-05T11:36:51;98569.25;;;4.24;52.25
73429;BME280;61643;49.564;17.412;2023-04-05T11:41:44;98570.50;;;4.15;52.12
73429;BME280;61643;49.564;17.412;2023-04-05T11:44:13;98570.53;;;4.09;52.25
73429;BME280;61643;49.564;17.412;2023-04-05T11:46:41;98569.28;;;4.11;53.45
73429;BME280;61643;49.564;17.412;2023-04-05T11:49:07;98566.00;;;4.09;52.66
73429;BME280;61643;49.564;17.412;2023-04-05T11:51:33;98578.09;;;4.12;52.73
73429;BME280;61643;49.564;17.412;2023-04-05T11:54:00;98564.13;;;4.29;50.86
73429;BME280;61643;49.564;17.412;2023-04-05T11:56:26;98576.66;;;4.16;51.68
73429;BME280;61643;49.564;17.412;2023-04-05T11:58:57;98571.31;;;4.09;52.01
73429;BME280;61643;49.564;17.412;2023-04-05T12:01:23;98575.03;;;4.08;50.85
73429;BME280;61643;49.564;17.412;2023-04-05T12:03:53;98578.91;;;4.12;51.29
73429;BME280;61643;49.564;17.412;2023-04-05T12:06:24;98569.47;;;4.23;50.47
73429;BME280;61643;49.564;17.412;2023-04-05T12:08:51;98571.69;;;4.39;50.64
73429;BME280;61643;49.564;17.412;2023-04-05T12:11:28;98574.97;;;4.47;51.06
73429;BME280;61643;49.564;17.412;2023-04-05T12:13:57;98565.53;;;4.52;50.42
73429;BME280;61643;49.564;17.412;2023-04-05T12:16:24;98562.44;;;4.55;50.45
73429;BME280;61643;49.564;17.412;2023-04-05T12:18:54;98560.75;;;4.60;52.13
73429;BME280;61643;49.564;17.412;2023-04-05T12:21:21;98559.47;;;4.76;49.56
73429;BME280;61643;49.564;17.412;2023-04-05T12:23:49;98560.53;;;4.68;49.29
73429;BME280;61643;49.564;17.412;2023-04-05T12:26:15;98555.69;;;4.45;49.49
73429;BME280;61643;49.564;17.412;2023-04-05T12:28:55;98548.34;;;4.41;49.74
73429;BME280;61643;49.564;17.412;2023-04-05T12:31:35;98539.22;;;4.68;48.79
73429;BME280;61643;49.564;17.412;2023-04-05T12:34:02;98545.06;;;4.90;46.65
73429;BME280;61643;49.564;17.412;2023-04-05T12:36:29;98539.56;;;5.23;47.82
73429;BME280;61643;49.564;17.412;2023-04-05T12:38:57;98536.50;;;5.19;47.01
73429;BME280;61643;49.564;17.412;2023-04-05T12:41:27;98531.50;;;5.29;46.94
73429;BME280;61643;49.564;17.412;2023-04-05T12:43:54;98526.69;;;5.44;47.84
73429;BME280;61643;49.564;17.412;2023-04-05T12:46:45;98535.19;;;5.28;47.19
73429;BME280;61643;49.564;17.412;2023-04-05T12:49:14;98530.97;;;5.21;46.92
73429;BME280;61643;49.564;17.412;2023-04-05T12:51:42;98532.94;;;4.94;47.86
73429;BME280;61643;49.564;17.412;2023-04-05T12:54:19;98532.94;;;4.94;48.48
73429;BME280;61643;49.564;17.412;2023-04-05T12:56:49;98530.09;;;4.89;48.16
73429;BME280;61643;49.564;17.412;2023-04-05T12:59:15;98533.03;;;4.81;48.53
73429;BME280;61643;49.564;17.412;2023-04-05T13:01:40;98528.88;;;4.85;48.84
73429;BME280;61643;49.564;17.412;2023-04-05T13:04:06;98532.56;;;4.90;48.79
73429;BME280;61643;49.564;17.412;2023-04-05T13:06:32;98523.44;;;5.05;46.94
73429;BME280;61643;49.564;17.412;2023-04-05T13:08:58;98516.84;;;5.07;48.91
73429;BME280;61643;49.564;17.412;2023-04-05T13:11:24;98514.41;;;5.06;48.13
73429;BME280;61643;49.564;17.412;2023-04-05T13:13:50;98519.59;;;4.94;48.45
73429;BME280;61643;49.564;17.412;2023-04-05T13:16:16;98516.03;;;5.07;50.70
73429;BME280;61643;49.564;17.412;2023-04-05T13:18:42;98532.22;;;5.12;49.65
73429;BME280;61643;49.564;17.412;2023-04-05T13:21:09;98523.75;;;5.21;49.09
73429;BME280;61643;49.564;17.412;2023-04-05T13:23:37;98531.75;;;5.21;49.60
73429;BME280;61643;49.564;17.412;2023-04-05T13:26:04;98527.25;;;5.22;49.11
73429;BME280;61643;49.564;17.412;2023-04-05T13:28:31;98532.81;;;5.20;47.50
73429;BME280;61643;49.564;17.412;2023-04-05T13:30:57;98527.09;;;5.17;48.30